createdAt,value
2017-05-23T00:01:02.618Z,0
2017-05-23T00:02:24.873Z,0
2017-05-23T00:03:47.045Z,0
2017-05-23T00:05:09.520Z,0
2017-05-23T00:06:31.048Z,0
2017-05-23T00:07:53.038Z,0
2017-05-23T00:09:15.231Z,0
2017-05-23T00:10:37.390Z,0
2017-05-23T00:11:58.918Z,0
2017-05-23T00:13:21.073Z,0
2017-05-23T00:14:42.260Z,0
2017-05-23T00:16:04.350Z,0
2017-05-23T00:17:26.512Z,0
2017-05-23T00:18:48.017Z,0
2017-05-23T00:20:10.329Z,0
2017-05-23T00:21:32.621Z,0
2017-05-23T00:22:54.770Z,0
2017-05-23T00:24:17.314Z,0
2017-05-23T00:25:39.150Z,0
2017-05-23T00:27:01.331Z,0
2017-05-23T00:28:23.231Z,0
2017-05-23T00:29:45.381Z,0
2017-05-23T00:31:07.623Z,0
2017-05-23T00:32:29.913Z,0
2017-05-23T01:06:52.930Z,0
2017-05-23T01:08:14.766Z,0
2017-05-23T01:09:36.967Z,0
2017-05-23T01:10:58.532Z,0
2017-05-23T01:12:21.183Z,0
2017-05-23T01:13:42.997Z,0
2017-05-23T01:15:04.540Z,0
2017-05-23T01:16:26.456Z,0
2017-05-23T01:17:48.954Z,0
2017-05-23T01:19:11.165Z,0
2017-05-23T01:20:32.991Z,0
2017-05-23T01:21:54.833Z,0
2017-05-23T01:23:17.297Z,0
2017-05-23T01:24:38.813Z,0
2017-05-23T01:26:01.104Z,0
2017-05-23T01:27:23.251Z,0
2017-05-23T01:28:45.992Z,0
2017-05-23T01:30:08.191Z,0
2017-05-23T01:31:30.562Z,0
2017-05-23T01:32:53.094Z,0
2017-05-23T01:34:14.672Z,0
2017-05-23T01:35:36.197Z,0
2017-05-23T01:36:57.891Z,0
2017-05-23T01:38:19.934Z,0
2017-05-23T01:39:42.106Z,0
2017-05-23T01:41:04.280Z,0
2017-05-23T01:42:26.433Z,0
2017-05-23T01:43:48.581Z,0
2017-05-23T01:45:10.993Z,0
2017-05-23T01:46:32.841Z,0
2017-05-23T01:47:54.699Z,0
2017-05-23T01:49:16.895Z,0
2017-05-23T01:50:39.083Z,0
2017-05-23T01:52:01.449Z,0
2017-05-23T01:53:23.584Z,0
2017-05-23T01:54:45.434Z,0
2017-05-23T01:56:07.313Z,0
2017-05-23T01:57:29.613Z,0
2017-05-23T01:58:52.064Z,0
2017-05-23T02:00:14.212Z,0
2017-05-23T02:01:36.343Z,0
2017-05-23T02:02:57.994Z,0
2017-05-23T02:04:19.855Z,0
2017-05-23T02:05:42.034Z,0
2017-05-23T02:07:04.603Z,0
2017-05-23T02:08:26.666Z,0
2017-05-23T02:09:48.922Z,0
2017-05-23T02:11:10.154Z,0
2017-05-23T02:12:31.916Z,0
2017-05-23T02:13:53.864Z,0
2017-05-23T02:15:16.005Z,0
2017-05-23T02:16:38.208Z,0
2017-05-23T02:18:00.614Z,0
2017-05-23T02:19:23.064Z,0
2017-05-23T02:20:45.213Z,0
2017-05-23T02:22:07.370Z,0
2017-05-23T02:23:29.466Z,0
2017-05-23T02:24:51.602Z,0
2017-05-23T02:26:13.883Z,0
2017-05-23T02:27:35.424Z,0
2017-05-23T02:28:57.307Z,0
2017-05-23T02:30:19.165Z,0
2017-05-23T02:31:41.424Z,0
2017-05-23T02:33:02.673Z,0
2017-05-23T02:34:24.804Z,0
2017-05-23T02:35:46.954Z,0
2017-05-23T02:37:08.833Z,0
2017-05-23T02:38:30.421Z,0
2017-05-23T02:39:52.927Z,0
2017-05-23T02:41:14.776Z,0
2017-05-23T02:42:36.927Z,0
2017-05-23T02:43:59.088Z,0
2017-05-23T02:45:21.684Z,0
2017-05-23T02:46:43.857Z,0
2017-05-23T02:48:06.008Z,0
2017-05-23T02:49:27.889Z,0
2017-05-23T02:50:50.464Z,0
2017-05-23T02:52:12.344Z,0
2017-05-23T02:53:33.573Z,0
2017-05-23T02:54:55.715Z,0
2017-05-23T02:56:18.004Z,0
2017-05-23T02:57:40.195Z,0
2017-05-23T02:59:01.726Z,0
2017-05-23T03:00:24.194Z,0
2017-05-23T03:01:46.086Z,0
2017-05-23T03:03:07.594Z,0
2017-05-23T03:04:29.744Z,0
2017-05-23T03:05:51.251Z,0
2017-05-23T03:07:12.742Z,0
2017-05-23T03:08:34.566Z,5
2017-05-23T03:09:56.711Z,5
2017-05-23T03:11:18.944Z,5
2017-05-23T03:12:42.066Z,5
2017-05-23T03:14:03.894Z,5
2017-05-23T03:15:26.154Z,5
2017-05-23T03:16:47.724Z,5
2017-05-23T03:18:10.226Z,10
2017-05-23T03:19:32.745Z,10
2017-05-23T03:20:54.906Z,10
2017-05-23T03:22:17.274Z,15
2017-05-23T03:23:39.455Z,15
2017-05-23T03:25:01.290Z,15
2017-05-23T03:26:23.253Z,20
2017-05-23T03:27:45.411Z,20
2017-05-23T03:29:07.554Z,20
2017-05-23T03:30:29.702Z,25
2017-05-23T03:31:51.214Z,25
2017-05-23T03:33:13.366Z,25
2017-05-23T03:34:35.135Z,30
2017-05-23T03:35:57.070Z,30
2017-05-23T03:37:18.985Z,35
2017-05-23T03:38:41.113Z,35
2017-05-23T03:40:03.216Z,35
2017-05-23T03:41:25.366Z,40
2017-05-23T03:42:47.184Z,40
2017-05-23T03:44:09.733Z,45
2017-05-23T03:45:32.220Z,45
2017-05-23T03:46:54.693Z,45
2017-05-23T03:48:16.524Z,50
2017-05-23T03:49:38.733Z,50
2017-05-23T03:51:00.701Z,55
2017-05-23T03:52:23.155Z,55
2017-05-23T03:53:44.665Z,60
2017-05-23T03:55:06.496Z,60
2017-05-23T03:56:28.993Z,60
2017-05-23T03:57:50.204Z,65
2017-05-23T03:59:12.059Z,65
2017-05-23T04:00:33.886Z,65
2017-05-23T04:01:56.394Z,70
2017-05-23T04:03:18.389Z,70
2017-05-23T04:04:40.237Z,70
2017-05-23T04:06:02.455Z,75
2017-05-23T04:07:24.615Z,75
2017-05-23T04:08:47.139Z,80
2017-05-23T04:10:08.692Z,80
2017-05-23T04:11:30.842Z,85
2017-05-23T04:12:53.338Z,85
2017-05-23T04:14:15.471Z,85
2017-05-23T04:15:36.786Z,90
2017-05-23T04:16:58.316Z,100
2017-05-23T04:18:20.114Z,105
2017-05-23T04:19:42.345Z,110
2017-05-23T04:21:04.172Z,120
2017-05-23T04:22:26.724Z,125
2017-05-23T04:23:48.235Z,125
2017-05-23T04:25:09.874Z,125
2017-05-23T04:26:32.047Z,130
2017-05-23T04:27:53.557Z,135
2017-05-23T04:29:15.848Z,145
2017-05-23T04:30:37.382Z,150
2017-05-23T04:31:59.525Z,150
2017-05-23T04:33:21.714Z,145
2017-05-23T04:34:44.162Z,135
2017-05-23T04:36:06.304Z,130
2017-05-23T04:37:28.141Z,130
2017-05-23T04:38:50.646Z,125
2017-05-23T04:40:13.464Z,130
2017-05-23T04:41:35.393Z,135
2017-05-23T04:42:57.560Z,145
2017-05-23T04:44:19.393Z,155
2017-05-23T04:45:41.932Z,165
2017-05-23T04:47:04.424Z,170
2017-05-23T04:48:26.591Z,170
2017-05-23T04:49:47.477Z,170
2017-05-23T04:51:10.417Z,170
2017-05-23T04:52:33.132Z,165
2017-05-23T04:53:54.957Z,175
2017-05-23T04:55:16.253Z,185
2017-05-23T04:56:38.382Z,205
2017-05-23T04:58:00.897Z,255
2017-05-23T04:59:22.117Z,300
2017-05-23T05:00:44.395Z,345
2017-05-23T05:02:07.243Z,375
2017-05-23T05:03:29.465Z,380
2017-05-23T05:04:51.630Z,360
2017-05-23T05:06:13.801Z,400
2017-05-23T05:07:36.636Z,365
2017-05-23T05:08:58.774Z,485
2017-05-23T05:10:21.336Z,580
2017-05-23T05:11:43.619Z,620
2017-05-23T05:13:06.434Z,685
2017-05-23T05:14:27.954Z,715
2017-05-23T05:15:49.624Z,730
2017-05-23T05:17:12.277Z,700
2017-05-23T05:18:34.378Z,400
2017-05-23T05:19:56.553Z,595
2017-05-23T05:21:18.085Z,485
2017-05-23T05:22:40.574Z,280
2017-05-23T05:24:02.664Z,375
2017-05-23T05:25:25.316Z,260
2017-05-23T05:26:47.471Z,270
2017-05-23T05:28:09.176Z,285
2017-05-23T05:29:31.667Z,300
2017-05-23T05:30:53.954Z,330
2017-05-23T05:32:16.113Z,290
2017-05-23T05:33:37.415Z,290
2017-05-23T05:34:59.271Z,295
2017-05-23T05:36:21.750Z,300
2017-05-23T05:37:43.932Z,325
2017-05-23T05:39:06.687Z,395
2017-05-23T05:40:28.514Z,445
2017-05-23T05:41:50.109Z,390
2017-05-23T05:43:12.703Z,460
2017-05-23T05:44:34.984Z,400
2017-05-23T05:45:56.804Z,515
2017-05-23T05:47:19.015Z,570
2017-05-23T05:48:41.174Z,575
2017-05-23T05:50:03.047Z,555
2017-05-23T05:51:25.565Z,565
2017-05-23T05:52:47.865Z,555
2017-05-23T05:54:09.077Z,555
2017-05-23T05:55:31.236Z,575
2017-05-23T05:56:53.637Z,610
2017-05-23T05:58:16.172Z,600
2017-05-23T05:59:37.057Z,585
2017-05-23T06:00:58.893Z,595
2017-05-23T06:02:21.311Z,600
2017-05-23T06:03:43.193Z,600
2017-05-23T06:05:05.723Z,580
2017-05-23T06:06:27.253Z,575
2017-05-23T06:07:49.885Z,585
2017-05-23T06:09:12.416Z,575
2017-05-23T06:10:34.581Z,570
2017-05-23T06:11:56.405Z,595
2017-05-23T06:13:18.628Z,590
2017-05-23T06:14:40.247Z,575
2017-05-23T06:16:02.421Z,565
2017-05-23T06:17:24.977Z,555
2017-05-23T06:18:47.723Z,565
2017-05-23T06:20:09.617Z,585
2017-05-23T06:21:31.805Z,600
2017-05-23T06:22:53.654Z,590
2017-05-23T06:24:16.335Z,585
2017-05-23T06:25:37.864Z,580
2017-05-23T06:26:59.717Z,560
2017-05-23T06:28:21.885Z,585
2017-05-23T06:29:44.468Z,575
2017-05-23T06:31:06.644Z,580
2017-05-23T06:32:28.505Z,585
2017-05-23T06:33:50.764Z,585
2017-05-23T06:35:13.397Z,575
2017-05-23T06:36:35.576Z,585
2017-05-23T06:37:57.116Z,565
2017-05-23T06:39:19.326Z,565
2017-05-23T06:40:41.764Z,540
2017-05-23T06:42:04.243Z,570
2017-05-23T06:43:26.827Z,570
2017-05-23T06:44:49.195Z,585
2017-05-23T06:46:11.635Z,595
2017-05-23T06:47:33.794Z,585
2017-05-23T06:48:55.968Z,635
2017-05-23T06:50:18.135Z,705
2017-05-23T06:51:40.717Z,635
2017-05-23T06:53:02.997Z,600
2017-05-23T06:54:24.553Z,605
2017-05-23T06:55:46.415Z,605
2017-05-23T06:57:08.007Z,615
2017-05-23T06:58:30.514Z,620
2017-05-23T06:59:52.687Z,630
2017-05-23T07:01:15.173Z,640
2017-05-23T07:02:37.613Z,655
2017-05-23T07:03:59.483Z,670
2017-05-23T07:05:22.004Z,685
2017-05-23T07:06:44.173Z,690
2017-05-23T07:08:06.589Z,665
2017-05-23T07:09:28.225Z,640
2017-05-23T07:10:50.722Z,620
2017-05-23T07:12:12.575Z,620
2017-05-23T07:13:35.408Z,550
2017-05-23T07:14:57.675Z,415
2017-05-23T07:16:20.213Z,395
2017-05-23T07:17:42.085Z,555
2017-05-23T07:19:04.375Z,620
2017-05-23T07:20:26.266Z,550
2017-05-23T07:21:48.203Z,475
2017-05-23T07:23:10.409Z,470
2017-05-23T07:24:33.264Z,490
2017-05-23T07:25:54.813Z,610
2017-05-23T07:27:16.761Z,625
2017-05-23T07:28:38.005Z,615
2017-05-23T07:30:00.735Z,605
2017-05-23T07:31:23.005Z,640
2017-05-23T07:32:44.935Z,680
2017-05-23T07:34:07.465Z,705
2017-05-23T07:35:30.200Z,705
2017-05-23T07:36:52.379Z,680
2017-05-23T07:38:14.574Z,630
2017-05-23T07:39:36.793Z,390
2017-05-23T07:40:59.333Z,320
2017-05-23T07:42:21.695Z,440
2017-05-23T07:43:44.183Z,505
2017-05-23T07:45:06.514Z,535
2017-05-23T07:46:29.329Z,510
2017-05-23T07:47:51.216Z,545
2017-05-23T07:49:13.404Z,555
2017-05-23T07:50:35.941Z,570
2017-05-23T07:52:27.257Z,565
2017-05-23T07:53:49.248Z,580
2017-05-23T07:55:11.434Z,600
2017-05-23T07:56:33.723Z,610
2017-05-23T07:57:56.145Z,570
2017-05-23T07:59:18.316Z,565
2017-05-23T08:00:40.184Z,570
2017-05-23T08:02:02.693Z,545
2017-05-23T08:03:25.232Z,550
2017-05-23T08:04:47.206Z,560
2017-05-23T08:06:09.078Z,555
2017-05-23T08:07:31.565Z,535
2017-05-23T08:08:53.109Z,535
2017-05-23T08:10:14.672Z,510
2017-05-23T08:11:36.606Z,400
2017-05-23T08:12:59.100Z,365
2017-05-23T08:14:21.982Z,355
2017-05-23T08:15:44.453Z,355
2017-05-23T08:17:06.616Z,355
2017-05-23T08:18:28.802Z,360
2017-05-23T08:19:51.339Z,360
2017-05-23T08:21:13.514Z,360
2017-05-23T08:22:36.148Z,350
2017-05-23T08:23:57.790Z,350
2017-05-23T08:25:20.206Z,355
2017-05-23T08:26:42.147Z,365
2017-05-23T08:28:04.406Z,370
2017-05-23T08:29:26.305Z,365
2017-05-23T08:30:48.724Z,365
2017-05-23T08:32:10.576Z,365
2017-05-23T08:33:32.108Z,370
2017-05-23T08:34:54.284Z,375
2017-05-23T08:36:16.712Z,375
2017-05-23T08:37:38.436Z,375
2017-05-23T08:39:00.931Z,370
2017-05-23T08:40:23.425Z,375
2017-05-23T08:41:45.860Z,375
2017-05-23T08:43:07.718Z,380
2017-05-23T08:44:29.572Z,375
2017-05-23T08:45:51.733Z,375
2017-05-23T08:47:14.472Z,375
2017-05-23T08:48:36.625Z,365
2017-05-23T08:49:58.466Z,365
2017-05-23T08:51:20.938Z,365
2017-05-23T08:52:43.796Z,365
2017-05-23T08:54:06.339Z,360
2017-05-23T08:55:27.854Z,360
2017-05-23T08:56:49.689Z,365
2017-05-23T08:58:12.255Z,365
2017-05-23T08:59:34.503Z,370
2017-05-23T09:00:56.775Z,375
2017-05-23T09:02:18.297Z,375
2017-05-23T09:03:40.504Z,355
2017-05-23T09:05:02.353Z,335
2017-05-23T09:06:24.535Z,335
2017-05-23T09:07:47.094Z,315
2017-05-23T09:09:08.651Z,325
2017-05-23T09:10:30.164Z,335
2017-05-23T09:11:52.641Z,335
2017-05-23T09:13:14.793Z,350
2017-05-23T09:14:36.996Z,370
2017-05-23T09:15:59.170Z,375
2017-05-23T09:17:21.373Z,380
2017-05-23T09:18:43.864Z,365
2017-05-23T09:20:06.278Z,365
2017-05-23T09:21:27.809Z,370
2017-05-23T09:22:50.301Z,385
2017-05-23T09:24:12.155Z,380
2017-05-23T09:25:34.985Z,385
2017-05-23T09:26:57.483Z,380
2017-05-23T09:28:19.335Z,370
2017-05-23T09:29:41.190Z,365
2017-05-23T09:31:03.334Z,365
2017-05-23T09:32:25.225Z,355
2017-05-23T09:33:47.081Z,345
2017-05-23T09:35:08.936Z,330
2017-05-23T09:36:31.666Z,315
2017-05-23T09:37:53.513Z,325
2017-05-23T09:39:15.371Z,335
2017-05-23T09:40:37.536Z,350
2017-05-23T09:41:59.933Z,350
2017-05-23T09:43:22.497Z,350
2017-05-23T09:44:44.688Z,355
2017-05-23T09:46:06.607Z,355
2017-05-23T09:47:29.417Z,365
2017-05-23T09:48:51.266Z,385
2017-05-23T09:50:13.485Z,435
2017-05-23T09:51:35.717Z,485
2017-05-23T09:52:57.855Z,545
2017-05-23T09:54:20.036Z,575
2017-05-23T09:55:41.894Z,595
2017-05-23T09:57:03.736Z,585
2017-05-23T09:58:25.576Z,575
2017-05-23T09:59:47.744Z,590
2017-05-23T10:01:09.747Z,575
2017-05-23T10:02:32.261Z,565
2017-05-23T10:03:54.456Z,550
2017-05-23T10:05:16.765Z,545
2017-05-23T10:06:38.673Z,545
2017-05-23T10:08:01.159Z,525
2017-05-23T10:09:23.254Z,505
2017-05-23T10:10:45.494Z,500
2017-05-23T10:12:07.683Z,505
2017-05-23T10:13:29.545Z,510
2017-05-23T10:14:51.383Z,515
2017-05-23T10:16:13.645Z,520
2017-05-23T10:17:35.973Z,530
2017-05-23T10:18:57.884Z,525
2017-05-23T10:20:20.614Z,520
2017-05-23T10:21:42.825Z,510
2017-05-23T10:23:05.296Z,485
2017-05-23T10:24:26.916Z,500
2017-05-23T10:25:49.695Z,485
2017-05-23T10:27:11.603Z,500
2017-05-23T10:28:34.092Z,520
2017-05-23T10:29:56.625Z,505
2017-05-23T10:31:19.130Z,470
2017-05-23T10:32:41.506Z,440
2017-05-23T10:34:03.373Z,430
2017-05-23T10:35:25.593Z,430
2017-05-23T10:36:47.774Z,440
2017-05-23T10:38:09.666Z,440
2017-05-23T10:39:32.176Z,425
2017-05-23T10:40:54.465Z,410
2017-05-23T10:42:17.074Z,440
2017-05-23T10:43:39.227Z,405
2017-05-23T10:45:01.088Z,420
2017-05-23T10:46:23.064Z,435
2017-05-23T10:47:45.910Z,420
2017-05-23T10:49:08.402Z,425
2017-05-23T10:50:30.883Z,415
2017-05-23T10:51:52.152Z,395
2017-05-23T10:53:14.259Z,390
2017-05-23T10:54:36.800Z,405
2017-05-23T10:55:58.994Z,405
2017-05-23T10:57:21.164Z,400
2017-05-23T10:58:43.584Z,435
2017-05-23T11:00:05.118Z,505
2017-05-23T11:01:26.643Z,525
2017-05-23T11:02:48.492Z,515
2017-05-23T11:04:10.647Z,520
2017-05-23T11:05:32.534Z,500
2017-05-23T11:06:54.674Z,490
2017-05-23T11:08:16.844Z,480
2017-05-23T11:09:39.082Z,480
2017-05-23T11:11:01.573Z,445
2017-05-23T11:12:23.112Z,450
2017-05-23T11:13:45.343Z,460
2017-05-23T11:15:07.454Z,465
2017-05-23T11:16:29.942Z,485
2017-05-23T11:17:52.407Z,495
2017-05-23T11:19:14.572Z,490
2017-05-23T11:20:37.434Z,475
2017-05-23T11:21:59.743Z,495
2017-05-23T11:23:21.912Z,510
2017-05-23T11:24:44.350Z,505
2017-05-23T11:26:07.083Z,495
2017-05-23T11:27:29.326Z,480
2017-05-23T11:28:51.164Z,470
2017-05-23T11:30:13.644Z,475
2017-05-23T11:31:36.190Z,490
2017-05-23T11:32:58.672Z,490
2017-05-23T11:34:20.533Z,455
2017-05-23T11:35:42.383Z,415
2017-05-23T11:37:03.863Z,385
2017-05-23T11:38:26.053Z,365
2017-05-23T11:39:48.224Z,355
2017-05-23T11:41:10.124Z,345
2017-05-23T11:42:32.700Z,345
2017-05-23T11:43:55.174Z,370
2017-05-23T11:45:17.343Z,400
2017-05-23T11:46:39.204Z,460
2017-05-23T11:48:01.433Z,485
2017-05-23T11:49:23.592Z,490
2017-05-23T11:50:45.772Z,485
2017-05-23T11:52:07.995Z,465
2017-05-23T11:53:30.192Z,455
2017-05-23T11:54:52.402Z,450
2017-05-23T11:56:14.683Z,455
2017-05-23T11:57:36.865Z,465
2017-05-23T11:58:59.757Z,455
2017-05-23T12:00:22.258Z,435
2017-05-23T12:01:44.104Z,410
2017-05-23T12:03:06.282Z,395
2017-05-23T12:04:28.402Z,370
2017-05-23T12:05:50.041Z,355
2017-05-23T12:07:11.561Z,360
2017-05-23T12:08:33.739Z,360
2017-05-23T12:09:55.563Z,375
2017-05-23T12:11:17.905Z,385
2017-05-23T12:12:40.083Z,390
2017-05-23T12:14:02.253Z,385
2017-05-23T12:15:24.443Z,380
2017-05-23T12:16:46.933Z,390
2017-05-23T12:18:08.501Z,395
2017-05-23T12:19:30.331Z,385
2017-05-23T12:20:52.511Z,360
2017-05-23T12:22:15.067Z,330
2017-05-23T12:23:37.542Z,310
2017-05-23T12:24:59.753Z,295
2017-05-23T12:26:22.306Z,290
2017-05-23T12:27:44.157Z,305
2017-05-23T12:29:06.023Z,300
2017-05-23T12:30:27.856Z,310
2017-05-23T12:31:50.093Z,310
2017-05-23T12:33:11.921Z,305
2017-05-23T12:34:33.771Z,290
2017-05-23T12:35:56.373Z,280
2017-05-23T12:37:18.482Z,280
2017-05-23T12:38:40.992Z,275
2017-05-23T12:40:03.533Z,270
2017-05-23T12:41:25.692Z,265
2017-05-23T12:42:48.523Z,260
2017-05-23T12:44:10.072Z,260
2017-05-23T12:45:31.906Z,260
2017-05-23T12:46:54.211Z,260
2017-05-23T12:48:16.932Z,260
2017-05-23T12:49:38.822Z,260
2017-05-23T12:51:01.334Z,270
2017-05-23T12:52:23.273Z,275
2017-05-23T12:53:45.703Z,275
2017-05-23T12:55:08.274Z,280
2017-05-23T12:56:30.115Z,285
2017-05-23T12:57:52.270Z,300
2017-05-23T12:59:13.733Z,305
2017-05-23T13:00:36.010Z,325
2017-05-23T13:01:57.838Z,320
2017-05-23T13:03:20.018Z,325
2017-05-23T13:04:42.834Z,350
2017-05-23T13:06:05.067Z,360
2017-05-23T13:07:27.260Z,355
2017-05-23T13:08:49.582Z,345
2017-05-23T13:10:11.673Z,340
2017-05-23T13:11:33.882Z,350
2017-05-23T13:12:56.190Z,370
2017-05-23T13:14:18.041Z,375
2017-05-23T13:15:40.185Z,375
2017-05-23T13:17:02.720Z,360
2017-05-23T13:18:24.285Z,365
2017-05-23T13:19:46.782Z,380
2017-05-23T13:21:08.702Z,360
2017-05-23T13:22:31.415Z,330
2017-05-23T13:23:53.917Z,335
2017-05-23T13:25:15.801Z,325
2017-05-23T13:26:38.586Z,310
2017-05-23T13:28:00.802Z,300
2017-05-23T13:29:22.409Z,285
2017-05-23T13:30:44.692Z,275
2017-05-23T13:32:07.226Z,265
2017-05-23T13:33:29.727Z,260
2017-05-23T13:34:51.901Z,250
2017-05-23T13:36:13.847Z,255
2017-05-23T13:37:36.471Z,260
2017-05-23T13:38:58.766Z,270
2017-05-23T13:40:21.039Z,275
2017-05-23T13:41:43.212Z,300
2017-05-23T13:43:05.823Z,300
2017-05-23T13:44:28.388Z,300
2017-05-23T13:45:51.075Z,300
2017-05-23T13:47:13.561Z,270
2017-05-23T13:48:36.333Z,280
2017-05-23T13:49:58.185Z,310
2017-05-23T13:51:20.853Z,335
2017-05-23T13:52:43.358Z,325
2017-05-23T13:54:05.202Z,305
2017-05-23T13:55:27.057Z,315
2017-05-23T13:56:49.541Z,295
2017-05-23T13:58:12.028Z,285
2017-05-23T13:59:34.255Z,285
2017-05-23T14:00:56.844Z,275
2017-05-23T14:02:19.009Z,240
2017-05-23T14:03:40.893Z,205
2017-05-23T14:05:03.003Z,185
2017-05-23T14:06:25.602Z,180
2017-05-23T14:07:48.072Z,225
2017-05-23T14:09:10.682Z,310
2017-05-23T14:10:33.152Z,370
2017-05-23T14:11:55.308Z,375
2017-05-23T14:13:17.483Z,345
2017-05-23T14:14:39.780Z,315
2017-05-23T14:16:01.642Z,350
2017-05-23T14:17:23.551Z,355
2017-05-23T14:18:45.402Z,320
2017-05-23T14:20:07.593Z,310
2017-05-23T14:21:30.428Z,305
2017-05-23T14:22:53.057Z,310
2017-05-23T14:24:15.228Z,295
2017-05-23T14:25:37.388Z,265
2017-05-23T14:26:59.499Z,290
2017-05-23T14:28:21.142Z,295
2017-05-23T14:29:43.059Z,255
2017-05-23T14:31:05.225Z,260
2017-05-23T14:32:27.756Z,300
2017-05-23T14:33:49.931Z,305
2017-05-23T14:35:12.087Z,345
2017-05-23T14:36:34.037Z,415
2017-05-23T14:37:56.820Z,435
2017-05-23T14:39:19.075Z,410
2017-05-23T14:40:41.244Z,360
2017-05-23T14:42:03.123Z,320
2017-05-23T14:43:26.109Z,280
2017-05-23T14:44:48.399Z,255
2017-05-23T14:46:10.572Z,245
2017-05-23T14:47:33.113Z,275
2017-05-23T14:48:55.282Z,275
2017-05-23T14:50:17.526Z,295
2017-05-23T14:51:40.001Z,320
2017-05-23T14:53:01.562Z,355
2017-05-23T14:54:23.709Z,380
2017-05-23T14:55:46.186Z,395
2017-05-23T14:57:08.499Z,400
2017-05-23T14:58:30.704Z,395
2017-05-23T14:59:52.798Z,380
2017-05-23T15:01:15.315Z,340
2017-05-23T15:02:37.187Z,300
2017-05-23T15:03:58.792Z,300
2017-05-23T15:05:21.641Z,310
2017-05-23T15:06:43.478Z,285
2017-05-23T15:08:05.364Z,285
2017-05-23T15:09:27.223Z,280
2017-05-23T15:10:50.210Z,280
2017-05-23T15:12:12.084Z,280
2017-05-23T15:13:34.582Z,265
2017-05-23T15:14:56.842Z,250
2017-05-23T15:16:19.383Z,240
2017-05-23T15:17:41.548Z,230
2017-05-23T15:19:03.731Z,225
2017-05-23T15:20:26.063Z,220
2017-05-23T15:21:48.267Z,210
2017-05-23T15:23:10.433Z,215
2017-05-23T15:24:32.664Z,225
2017-05-23T15:25:54.833Z,225
2017-05-23T15:27:17.364Z,240
2017-05-23T15:28:39.845Z,220
2017-05-23T15:30:02.104Z,210
2017-05-23T15:31:24.295Z,205
2017-05-23T15:32:47.157Z,205
2017-05-23T15:34:09.660Z,200
2017-05-23T15:35:31.582Z,190
2017-05-23T15:36:53.737Z,190
2017-05-23T15:38:15.931Z,190
2017-05-23T15:39:38.272Z,195
2017-05-23T15:41:00.588Z,175
2017-05-23T15:42:23.160Z,185
2017-05-23T15:43:45.793Z,185
2017-05-23T15:45:07.727Z,180
2017-05-23T15:46:30.342Z,185
2017-05-23T15:47:52.532Z,190
2017-05-23T15:49:14.742Z,190
2017-05-23T15:50:37.253Z,190
2017-05-23T15:51:59.123Z,185
2017-05-23T15:53:21.418Z,180
2017-05-23T15:54:43.308Z,180
2017-05-23T15:56:05.697Z,180
2017-05-23T15:57:27.246Z,180
2017-05-23T15:58:49.493Z,180
2017-05-23T16:00:11.761Z,170
2017-05-23T16:01:33.622Z,165
2017-05-23T16:02:56.182Z,160
2017-05-23T16:04:18.721Z,165
2017-05-23T16:05:41.661Z,165
2017-05-23T16:07:04.163Z,165
2017-05-23T16:08:26.250Z,165
2017-05-23T16:09:48.191Z,165
2017-05-23T16:11:10.705Z,165
2017-05-23T16:12:33.384Z,165
2017-05-23T16:13:55.318Z,170
2017-05-23T16:15:17.542Z,155
2017-05-23T16:16:40.412Z,155
2017-05-23T16:18:02.964Z,155
2017-05-23T16:19:25.472Z,160
2017-05-23T16:20:47.649Z,165
2017-05-23T16:22:10.135Z,165
2017-05-23T16:23:32.358Z,165
2017-05-23T16:24:54.643Z,165
2017-05-23T16:26:16.191Z,160
2017-05-23T16:27:38.673Z,155
2017-05-23T16:29:01.022Z,155
2017-05-23T16:30:23.530Z,155
2017-05-23T16:31:45.714Z,150
2017-05-23T16:33:08.471Z,135
2017-05-23T16:34:31.043Z,135
2017-05-23T16:35:53.227Z,160
2017-05-23T16:37:15.166Z,160
2017-05-23T16:38:37.719Z,170
2017-05-23T16:40:00.222Z,175
2017-05-23T16:41:22.384Z,175
2017-05-23T16:42:44.883Z,180
2017-05-23T16:44:07.150Z,180
2017-05-23T16:45:30.170Z,175
2017-05-23T16:46:52.119Z,170
2017-05-23T16:48:14.012Z,170
2017-05-23T16:49:36.885Z,170
2017-05-23T16:50:58.449Z,180
2017-05-23T16:52:20.644Z,185
2017-05-23T16:53:42.588Z,175
2017-05-23T16:55:05.163Z,165
2017-05-23T16:56:27.054Z,160
2017-05-23T16:57:49.022Z,160
2017-05-23T16:59:11.563Z,165
2017-05-23T17:00:34.540Z,155
2017-05-23T17:01:56.486Z,160
2017-05-23T17:03:18.991Z,165
2017-05-23T17:04:41.163Z,165
2017-05-23T17:06:03.320Z,170
2017-05-23T17:07:26.062Z,175
2017-05-23T17:08:48.666Z,175
2017-05-23T17:10:10.215Z,180
2017-05-23T17:11:32.958Z,170
2017-05-23T17:12:55.466Z,170
2017-05-23T17:14:17.374Z,160
2017-05-23T17:15:39.626Z,155
2017-05-23T17:17:01.080Z,145
2017-05-23T17:18:23.282Z,145
2017-05-23T17:19:45.461Z,140
2017-05-23T17:21:07.000Z,135
2017-05-23T17:22:29.224Z,135
2017-05-23T17:23:51.521Z,130
2017-05-23T17:25:13.382Z,125
2017-05-23T17:26:35.562Z,130
2017-05-23T17:27:57.972Z,135
2017-05-23T17:29:20.145Z,140
2017-05-23T17:30:42.312Z,145
2017-05-23T17:32:04.477Z,140
2017-05-23T17:33:27.334Z,140
2017-05-23T17:34:50.092Z,140
2017-05-23T17:36:12.620Z,135
2017-05-23T17:37:35.146Z,130
2017-05-23T17:38:57.695Z,130
2017-05-23T17:40:19.610Z,125
2017-05-23T17:41:42.102Z,125
2017-05-23T17:43:04.403Z,125
2017-05-23T17:44:27.071Z,130
2017-05-23T17:45:49.225Z,130
2017-05-23T17:47:11.876Z,130
2017-05-23T17:48:34.117Z,130
2017-05-23T17:49:56.551Z,130
2017-05-23T17:51:19.071Z,130
2017-05-23T17:52:41.322Z,130
2017-05-23T17:54:03.837Z,125
2017-05-23T17:55:26.322Z,125
2017-05-23T17:56:48.512Z,120
2017-05-23T17:58:10.435Z,125
2017-05-23T17:59:32.981Z,130
2017-05-23T18:00:55.529Z,135
2017-05-23T18:02:17.754Z,140
2017-05-23T18:03:40.094Z,140
2017-05-23T18:05:02.251Z,145
2017-05-23T18:06:24.473Z,150
2017-05-23T18:07:46.635Z,150
2017-05-23T18:09:09.181Z,150
2017-05-23T18:10:31.393Z,135
2017-05-23T18:11:54.240Z,120
2017-05-23T18:13:16.293Z,110
2017-05-23T18:14:38.565Z,100
2017-05-23T18:16:00.452Z,95
2017-05-23T18:17:22.611Z,90
2017-05-23T18:18:44.474Z,85
2017-05-23T18:20:06.662Z,85
2017-05-23T18:21:28.532Z,80
2017-05-23T18:22:51.056Z,80
2017-05-23T18:24:13.568Z,80
2017-05-23T18:25:35.736Z,85
2017-05-23T18:26:57.902Z,75
2017-05-23T18:28:20.738Z,75
2017-05-23T18:29:43.246Z,75
2017-05-23T18:31:05.491Z,75
2017-05-23T18:32:27.832Z,70
2017-05-23T18:33:50.304Z,65
2017-05-23T18:35:12.899Z,65
2017-05-23T18:36:35.090Z,65
2017-05-23T18:37:56.956Z,65
2017-05-23T18:39:19.464Z,60
2017-05-23T18:40:41.364Z,60
2017-05-23T18:42:03.638Z,55
2017-05-23T18:43:25.559Z,55
2017-05-23T18:44:48.106Z,55
2017-05-23T18:46:10.625Z,55
2017-05-23T18:47:33.122Z,50
2017-05-23T18:48:55.653Z,50
2017-05-23T18:50:17.503Z,45
2017-05-23T18:51:40.042Z,45
2017-05-23T18:53:02.610Z,45
2017-05-23T18:54:24.815Z,40
2017-05-23T18:55:47.293Z,40
2017-05-23T18:57:09.153Z,35
2017-05-23T18:58:31.020Z,35
2017-05-23T18:59:52.914Z,30
2017-05-23T19:01:15.392Z,30
2017-05-23T19:02:37.262Z,30
2017-05-23T19:03:59.432Z,25
2017-05-23T19:05:22.022Z,25
2017-05-23T19:06:44.629Z,25
2017-05-23T19:08:06.905Z,25
2017-05-23T19:09:29.427Z,20
2017-05-23T19:10:51.946Z,20
2017-05-23T19:12:14.802Z,20
2017-05-23T19:13:37.055Z,15
2017-05-23T19:14:59.344Z,15
2017-05-23T19:16:21.961Z,15
2017-05-23T19:17:44.158Z,15
2017-05-23T19:19:06.732Z,10
2017-05-23T19:20:29.261Z,10
2017-05-23T19:21:51.117Z,10
2017-05-23T19:23:13.596Z,10
2017-05-23T19:24:36.206Z,10
2017-05-23T19:25:58.554Z,10
2017-05-23T19:27:20.750Z,5
2017-05-23T19:28:43.358Z,5
2017-05-23T19:30:05.584Z,5
2017-05-23T19:31:28.093Z,5
2017-05-23T19:32:50.603Z,5
2017-05-23T19:34:12.754Z,5
2017-05-23T19:35:35.554Z,5
2017-05-23T19:36:57.741Z,5
2017-05-23T19:38:19.931Z,5
2017-05-23T19:39:42.387Z,5
2017-05-23T19:41:05.069Z,0
2017-05-23T19:42:27.267Z,0